createdAt,value
2018-05-16T00:00:11.463Z,58.06
2018-05-16T00:01:13.964Z,58.09
2018-05-16T00:02:16.482Z,58.13
2018-05-16T00:03:18.972Z,58.13
2018-05-16T00:04:21.466Z,58.18
2018-05-16T00:05:23.966Z,58.25
2018-05-16T00:06:26.442Z,58.32
2018-05-16T00:07:28.911Z,58.36
2018-05-16T00:08:31.401Z,58.37
2018-05-16T00:09:33.915Z,58.41
2018-05-16T00:10:36.400Z,58.44
2018-05-16T00:11:38.907Z,58.46
2018-05-16T00:12:41.416Z,58.47
2018-05-16T00:13:43.909Z,58.46
2018-05-16T00:14:46.424Z,58.45
2018-05-16T00:15:48.924Z,58.43
2018-05-16T00:16:51.402Z,58.41
2018-05-16T00:17:53.889Z,58.45
2018-05-16T00:18:56.373Z,58.44
2018-05-16T00:19:58.865Z,58.46
2018-05-16T00:21:01.347Z,58.48
2018-05-16T00:22:03.836Z,58.48
2018-05-16T00:23:06.339Z,58.53
2018-05-16T00:24:08.847Z,58.50
2018-05-16T00:25:11.360Z,58.50
2018-05-16T00:26:13.853Z,58.54
2018-05-16T00:27:16.331Z,58.59
2018-05-16T00:28:18.825Z,58.55
2018-05-16T00:29:21.324Z,58.56
2018-05-16T00:30:23.835Z,58.57
2018-05-16T00:31:26.321Z,58.61
2018-05-16T00:32:28.828Z,58.62
2018-05-16T00:33:31.326Z,58.70
2018-05-16T00:34:33.825Z,58.71
2018-05-16T00:35:36.348Z,58.78
2018-05-16T00:36:38.863Z,58.91
2018-05-16T00:37:41.338Z,58.88
2018-05-16T00:38:43.848Z,59.00
2018-05-16T00:39:46.330Z,59.03
2018-05-16T00:40:48.852Z,58.99
2018-05-16T00:41:51.322Z,58.99
2018-05-16T00:42:53.813Z,58.97
2018-05-16T00:43:56.288Z,59.00
2018-05-16T00:44:58.773Z,58.94
2018-05-16T00:46:01.273Z,58.90
2018-05-16T00:47:03.773Z,58.87
2018-05-16T00:48:06.246Z,58.82
2018-05-16T00:49:08.741Z,58.84
2018-05-16T00:50:11.230Z,58.85
2018-05-16T00:51:25.710Z,58.85
2018-05-16T00:52:28.223Z,58.84
2018-05-16T00:53:30.737Z,58.83
2018-05-16T00:54:33.238Z,58.78
2018-05-16T00:55:35.707Z,58.80
2018-05-16T00:56:38.245Z,58.88
2018-05-16T00:57:40.718Z,58.81
2018-05-16T00:58:43.199Z,58.78
2018-05-16T00:59:45.667Z,58.76
2018-05-16T01:00:48.152Z,58.77
2018-05-16T01:01:50.665Z,58.79
2018-05-16T01:02:53.157Z,58.83
2018-05-16T01:03:55.642Z,58.90
2018-05-16T01:04:58.119Z,58.98
2018-05-16T01:06:00.590Z,59.08
2018-05-16T01:07:03.093Z,59.04
2018-05-16T01:08:05.581Z,59.03
2018-05-16T01:09:08.070Z,59.04
2018-05-16T01:10:10.543Z,59.02
2018-05-16T01:11:13.047Z,59.16
2018-05-16T01:12:15.572Z,59.08
2018-05-16T01:13:18.053Z,59.10
2018-05-16T01:14:20.550Z,59.12
2018-05-16T01:15:23.045Z,59.06
2018-05-16T01:16:25.627Z,59.01
2018-05-16T01:17:28.137Z,59.03
2018-05-16T01:18:30.651Z,59.06
2018-05-16T01:19:33.131Z,59.03
2018-05-16T01:20:35.632Z,59.07
2018-05-16T01:21:38.121Z,59.04
2018-05-16T01:22:40.625Z,59.05
2018-05-16T01:23:44.021Z,59.11
2018-05-16T01:24:46.493Z,59.14
2018-05-16T01:25:48.981Z,59.07
2018-05-16T01:26:51.469Z,59.06
2018-05-16T01:27:53.992Z,59.05
2018-05-16T01:28:56.495Z,59.07
2018-05-16T01:29:59.004Z,59.07
2018-05-16T01:31:01.485Z,59.01
2018-05-16T01:32:03.966Z,59.03
2018-05-16T01:33:06.476Z,59.06
2018-05-16T01:34:08.955Z,59.04
2018-05-16T01:35:11.455Z,58.99
2018-05-16T01:36:13.951Z,59.03
2018-05-16T01:37:16.446Z,58.99
2018-05-16T01:38:18.967Z,58.99
2018-05-16T01:39:21.450Z,58.96
2018-05-16T01:40:23.956Z,58.92
2018-05-16T01:41:26.445Z,58.94
2018-05-16T01:42:28.941Z,59.02
2018-05-16T01:43:31.461Z,59.04
2018-05-16T01:44:33.960Z,59.03
2018-05-16T01:45:36.430Z,59.02
2018-05-16T01:46:38.906Z,59.03
2018-05-16T01:47:41.394Z,58.98
2018-05-16T01:48:43.896Z,59.05
2018-05-16T01:49:46.369Z,59.05
2018-05-16T01:50:48.854Z,59.07
2018-05-16T01:51:51.349Z,59.07
2018-05-16T01:52:53.836Z,59.05
2018-05-16T01:53:56.346Z,59.07
2018-05-16T01:54:58.865Z,59.14
2018-05-16T01:56:01.342Z,59.10
2018-05-16T01:57:03.861Z,59.09
2018-05-16T01:58:06.354Z,59.19
2018-05-16T01:59:08.871Z,59.20
2018-05-16T02:00:11.349Z,59.15
2018-05-16T02:01:13.822Z,59.15
2018-05-16T02:02:16.320Z,59.14
2018-05-16T02:03:18.839Z,59.18
2018-05-16T02:04:21.357Z,59.20
2018-05-16T02:05:23.845Z,59.23
2018-05-16T02:06:26.335Z,59.25
2018-05-16T02:07:28.821Z,59.24
2018-05-16T02:08:31.339Z,59.23
2018-05-16T02:09:33.872Z,59.21
2018-05-16T02:10:36.367Z,59.19
2018-05-16T02:11:38.857Z,59.27
2018-05-16T02:12:41.363Z,59.31
2018-05-16T02:13:43.848Z,59.37
2018-05-16T02:14:46.339Z,59.37
2018-05-16T02:15:48.832Z,59.40
2018-05-16T02:16:51.336Z,59.39
2018-05-16T02:17:53.851Z,59.40
2018-05-16T02:18:56.375Z,59.39
2018-05-16T02:19:58.889Z,59.41
2018-05-16T02:21:01.380Z,59.45
2018-05-16T02:22:03.897Z,59.46
2018-05-16T02:23:06.371Z,59.46
2018-05-16T02:24:08.881Z,59.49
2018-05-16T02:25:11.410Z,59.51
2018-05-16T02:26:13.882Z,59.54
2018-05-16T02:27:16.377Z,59.52
2018-05-16T02:28:18.886Z,59.53
2018-05-16T02:29:21.377Z,59.56
2018-05-16T02:30:23.876Z,59.58
2018-05-16T02:31:26.360Z,59.63
2018-05-16T02:32:28.830Z,59.59
2018-05-16T02:33:31.302Z,59.62
2018-05-16T02:34:33.804Z,59.64
2018-05-16T02:35:36.318Z,59.61
2018-05-16T02:36:38.824Z,59.64
2018-05-16T02:37:41.293Z,59.67
2018-05-16T02:38:43.770Z,59.67
2018-05-16T02:39:46.243Z,59.64
2018-05-16T02:40:48.733Z,59.70
2018-05-16T02:41:51.252Z,59.69
2018-05-16T02:42:53.763Z,59.78
2018-05-16T02:43:56.244Z,59.91
2018-05-16T02:44:58.752Z,59.87
2018-05-16T02:46:01.288Z,59.90
2018-05-16T02:47:03.763Z,59.89
2018-05-16T02:48:06.272Z,59.87
2018-05-16T02:49:08.791Z,60.06
2018-05-16T02:50:11.277Z,60.01
2018-05-16T02:51:13.856Z,59.97
2018-05-16T02:52:16.368Z,59.94
2018-05-16T02:53:18.857Z,59.90
2018-05-16T02:54:21.379Z,59.96
2018-05-16T02:55:23.866Z,59.93
2018-05-16T02:56:26.449Z,59.85
2018-05-16T02:57:28.877Z,59.85
2018-05-16T02:58:31.369Z,59.79
2018-05-16T02:59:33.899Z,59.83
2018-05-16T03:00:36.372Z,59.79
2018-05-16T03:01:39.380Z,59.76
2018-05-16T03:02:42.350Z,59.71
2018-05-16T03:03:44.937Z,59.85
2018-05-16T03:04:47.767Z,59.80
2018-05-16T03:05:50.324Z,59.87
2018-05-16T03:06:53.210Z,59.86
2018-05-16T03:07:55.769Z,59.83
2018-05-16T03:08:59.231Z,59.85
2018-05-16T03:10:01.726Z,59.84
2018-05-16T03:11:04.237Z,59.91
2018-05-16T03:12:06.750Z,59.87
2018-05-16T03:13:09.227Z,59.90
2018-05-16T03:14:11.714Z,59.92
2018-05-16T03:15:14.212Z,59.95
2018-05-16T03:16:16.703Z,59.90
2018-05-16T03:17:19.213Z,59.91
2018-05-16T03:18:21.705Z,60.00
2018-05-16T03:19:24.178Z,59.99
2018-05-16T03:20:26.684Z,60.03
2018-05-16T03:21:29.187Z,60.01
2018-05-16T03:22:31.697Z,60.07
2018-05-16T03:23:34.208Z,60.08
2018-05-16T03:24:36.682Z,60.06
2018-05-16T03:25:39.176Z,60.06
2018-05-16T03:26:41.673Z,60.02
2018-05-16T03:27:44.180Z,60.04
2018-05-16T03:28:46.698Z,60.05
2018-05-16T03:29:49.204Z,60.08
2018-05-16T03:30:51.704Z,60.18
2018-05-16T03:31:54.192Z,60.25
2018-05-16T03:32:56.720Z,60.27
2018-05-16T03:33:59.216Z,60.29
2018-05-16T03:35:01.725Z,60.34
2018-05-16T03:36:04.228Z,60.34
2018-05-16T03:37:06.718Z,60.32
2018-05-16T03:38:09.221Z,60.36
2018-05-16T03:39:11.727Z,60.45
2018-05-16T03:40:14.225Z,60.48
2018-05-16T03:41:16.721Z,60.48
2018-05-16T03:42:19.195Z,60.40
2018-05-16T03:43:21.708Z,60.34
2018-05-16T03:44:24.183Z,60.32
2018-05-16T03:45:26.650Z,60.31
2018-05-16T03:46:29.141Z,60.30
2018-05-16T03:47:31.627Z,60.24
2018-05-16T03:48:34.142Z,60.23
2018-05-16T03:49:36.654Z,60.21
2018-05-16T03:50:39.149Z,60.20
2018-05-16T03:51:41.629Z,60.26
2018-05-16T03:52:44.136Z,60.23
2018-05-16T03:53:46.675Z,60.23
2018-05-16T03:54:49.165Z,60.21
2018-05-16T03:55:51.635Z,60.27
2018-05-16T03:56:54.133Z,60.31
2018-05-16T03:58:17.300Z,60.35
2018-05-16T03:59:31.691Z,60.31
2018-05-16T04:00:46.060Z,60.40
2018-05-16T04:02:00.257Z,60.35
2018-05-16T04:03:14.546Z,60.36
2018-05-16T04:04:17.797Z,60.35
2018-05-16T04:05:20.322Z,60.36
2018-05-16T04:06:22.839Z,60.36
2018-05-16T04:07:25.314Z,60.39
2018-05-16T04:08:27.809Z,60.41
2018-05-16T04:09:30.301Z,60.44
2018-05-16T04:10:32.827Z,60.41
2018-05-16T04:11:35.356Z,60.41
2018-05-16T04:12:37.845Z,60.55
2018-05-16T04:13:40.347Z,60.58
2018-05-16T04:14:42.836Z,60.63
2018-05-16T04:15:45.348Z,60.62
2018-05-16T04:16:47.867Z,60.73
2018-05-16T04:17:50.361Z,60.73
2018-05-16T04:18:52.863Z,60.56
2018-05-16T04:19:55.346Z,60.71
2018-05-16T04:20:57.867Z,60.73
2018-05-16T04:22:00.370Z,60.81
2018-05-16T04:23:02.876Z,60.83
2018-05-16T04:24:05.395Z,60.83
2018-05-16T04:25:07.868Z,60.79
2018-05-16T04:26:10.380Z,60.76
2018-05-16T04:27:12.864Z,60.77
2018-05-16T04:28:15.379Z,60.75
2018-05-16T04:29:17.851Z,60.78
2018-05-16T04:30:20.362Z,60.86
2018-05-16T04:31:22.866Z,60.87
2018-05-16T04:32:25.397Z,60.85
2018-05-16T04:33:27.919Z,60.91
2018-05-16T04:34:30.440Z,61.13
2018-05-16T04:35:32.958Z,61.17
2018-05-16T04:36:35.470Z,61.19
2018-05-16T04:37:37.970Z,61.29
2018-05-16T04:38:40.641Z,61.19
2018-05-16T04:39:43.181Z,61.01
2018-05-16T04:40:45.650Z,59.95
2018-05-16T04:41:48.153Z,58.72
2018-05-16T04:42:50.667Z,57.57
2018-05-16T04:43:53.164Z,56.86
2018-05-16T04:44:55.661Z,56.41
2018-05-16T04:45:58.182Z,56.00
2018-05-16T04:47:00.694Z,55.95
2018-05-16T04:48:03.188Z,55.12
2018-05-16T04:49:05.694Z,54.62
2018-05-16T04:50:08.199Z,54.34
2018-05-16T04:51:10.701Z,54.48
2018-05-16T04:52:13.198Z,54.51
2018-05-16T04:53:15.715Z,54.49
2018-05-16T04:54:18.228Z,54.27
2018-05-16T04:55:20.721Z,53.96
2018-05-16T04:56:23.208Z,53.82
2018-05-16T04:57:25.759Z,53.88
2018-05-16T04:58:28.231Z,53.83
2018-05-16T04:59:30.719Z,53.45
2018-05-16T05:00:33.275Z,53.48
2018-05-16T05:01:35.794Z,53.45
2018-05-16T05:02:38.309Z,53.61
2018-05-16T05:03:40.804Z,53.54
2018-05-16T05:04:43.313Z,54.12
2018-05-16T05:05:45.805Z,54.01
2018-05-16T05:06:48.344Z,53.97
2018-05-16T05:07:50.857Z,53.74
2018-05-16T05:08:53.362Z,53.53
2018-05-16T05:09:55.957Z,53.62
2018-05-16T05:10:58.491Z,53.83
2018-05-16T05:12:00.967Z,53.94
2018-05-16T05:13:03.491Z,54.07
2018-05-16T05:14:06.008Z,53.92
2018-05-16T05:15:08.499Z,53.60
2018-05-16T05:16:11.140Z,53.79
2018-05-16T05:17:13.612Z,53.72
2018-05-16T05:18:16.209Z,53.86
2018-05-16T05:19:18.643Z,53.98
2018-05-16T05:20:21.131Z,54.09
2018-05-16T05:21:23.629Z,54.02
2018-05-16T05:22:26.147Z,53.87
2018-05-16T05:23:28.664Z,53.88
2018-05-16T05:24:31.162Z,53.77
2018-05-16T05:25:33.643Z,53.50
2018-05-16T05:26:36.143Z,53.24
2018-05-16T05:27:38.643Z,53.14
2018-05-16T05:28:41.274Z,53.10
2018-05-16T05:29:43.779Z,53.19
2018-05-16T05:30:46.255Z,53.27
2018-05-16T05:31:48.764Z,53.38
2018-05-16T05:32:51.317Z,53.50
2018-05-16T05:33:53.814Z,53.53
2018-05-16T05:34:56.309Z,53.57
2018-05-16T05:35:58.881Z,53.57
2018-05-16T05:37:01.392Z,53.57
2018-05-16T05:38:03.899Z,53.47
2018-05-16T05:39:06.426Z,53.43
2018-05-16T05:40:08.921Z,53.39
2018-05-16T05:41:11.431Z,53.32
2018-05-16T05:42:13.948Z,53.31
2018-05-16T05:43:16.522Z,53.30
2018-05-16T05:44:19.000Z,53.38
2018-05-16T05:45:21.498Z,53.41
2018-05-16T05:46:24.003Z,53.45
2018-05-16T05:47:26.804Z,53.47
2018-05-16T05:48:29.293Z,53.52
2018-05-16T05:49:31.800Z,53.58
2018-05-16T05:50:34.315Z,53.59
2018-05-16T05:51:36.835Z,53.58
2018-05-16T05:52:39.325Z,53.58
2018-05-16T05:53:41.817Z,53.55
2018-05-16T05:54:44.424Z,53.49
2018-05-16T05:55:46.928Z,53.45
2018-05-16T05:56:49.451Z,53.42
2018-05-16T05:57:51.945Z,53.39
2018-05-16T05:58:54.438Z,53.33
2018-05-16T05:59:56.978Z,53.26
2018-05-16T06:00:59.444Z,53.28
2018-05-16T06:02:01.943Z,53.28
2018-05-16T06:03:04.455Z,53.24
2018-05-16T06:04:06.984Z,53.25
2018-05-16T06:05:09.474Z,53.24
2018-05-16T06:06:11.989Z,53.17
2018-05-16T06:07:14.462Z,53.08
2018-05-16T06:08:16.945Z,53.05
2018-05-16T06:09:19.476Z,53.00
2018-05-16T06:10:21.976Z,53.10
2018-05-16T06:11:24.474Z,53.22
2018-05-16T06:12:26.983Z,53.26
2018-05-16T06:13:29.474Z,53.26
2018-05-16T06:14:31.976Z,53.29
2018-05-16T06:15:34.474Z,53.27
2018-05-16T06:16:36.968Z,53.21
2018-05-16T06:17:39.448Z,53.16
2018-05-16T06:18:41.959Z,53.18
2018-05-16T06:19:44.553Z,53.22
2018-05-16T06:20:47.037Z,53.27
2018-05-16T06:21:49.530Z,53.31
2018-05-16T06:22:52.180Z,53.31
2018-05-16T06:23:54.651Z,53.21
2018-05-16T06:24:57.174Z,53.15
2018-05-16T06:25:59.674Z,53.18
2018-05-16T06:27:02.202Z,53.17
2018-05-16T06:28:04.678Z,53.10
2018-05-16T06:29:07.177Z,53.07
2018-05-16T06:30:09.706Z,52.99
2018-05-16T06:31:12.211Z,53.05
2018-05-16T06:32:14.720Z,53.13
2018-05-16T06:33:17.213Z,53.33
2018-05-16T06:34:19.715Z,53.39
2018-05-16T06:35:22.206Z,53.43
2018-05-16T06:36:24.692Z,53.49
2018-05-16T06:37:27.176Z,53.49
2018-05-16T06:38:29.677Z,53.46
2018-05-16T06:39:32.163Z,53.42
2018-05-16T06:40:34.703Z,53.44
2018-05-16T06:41:37.206Z,53.47
2018-05-16T06:42:39.724Z,53.48
2018-05-16T06:43:42.225Z,53.41
2018-05-16T06:44:44.724Z,53.31
2018-05-16T06:45:47.248Z,53.19
2018-05-16T06:46:49.776Z,53.26
2018-05-16T06:47:52.270Z,53.43
2018-05-16T06:48:54.760Z,53.49
2018-05-16T06:49:57.256Z,53.36
2018-05-16T06:50:59.754Z,53.50
2018-05-16T06:52:02.251Z,53.59
2018-05-16T06:53:04.732Z,53.59
2018-05-16T06:54:07.253Z,53.62
2018-05-16T06:55:09.738Z,53.76
2018-05-16T06:56:12.247Z,53.85
2018-05-16T06:57:14.723Z,53.95
2018-05-16T06:58:17.346Z,53.96
2018-05-16T06:59:19.849Z,53.97
2018-05-16T07:00:22.337Z,53.96
2018-05-16T07:01:24.883Z,53.91
2018-05-16T07:02:27.382Z,53.96
2018-05-16T07:03:29.915Z,54.11
2018-05-16T07:04:32.390Z,54.23
2018-05-16T07:05:34.871Z,54.38
2018-05-16T07:06:37.364Z,54.46
2018-05-16T07:07:39.862Z,54.50
2018-05-16T07:08:42.380Z,54.54
2018-05-16T07:09:44.872Z,54.55
2018-05-16T07:10:47.342Z,54.55
2018-05-16T07:11:49.868Z,54.54
2018-05-16T07:12:52.380Z,54.54
2018-05-16T07:13:54.877Z,54.52
2018-05-16T07:14:57.393Z,54.50
2018-05-16T07:15:59.945Z,54.49
2018-05-16T07:17:02.454Z,54.49
2018-05-16T07:18:04.964Z,54.54
2018-05-16T07:19:07.468Z,54.54
2018-05-16T07:20:09.944Z,54.55
2018-05-16T07:21:12.432Z,54.57
2018-05-16T07:22:14.941Z,54.22
2018-05-16T07:23:17.447Z,54.26
2018-05-16T07:24:19.948Z,54.40
2018-05-16T07:25:22.431Z,54.25
2018-05-16T07:26:24.920Z,53.98
2018-05-16T07:27:27.420Z,53.87
2018-05-16T07:28:29.898Z,53.82
2018-05-16T07:29:32.402Z,53.77
2018-05-16T07:30:34.905Z,53.67
2018-05-16T07:31:37.378Z,53.62
2018-05-16T07:32:39.866Z,53.68
2018-05-16T07:33:42.341Z,53.65
2018-05-16T07:34:44.856Z,53.66
2018-05-16T07:35:47.331Z,53.27
2018-05-16T07:36:49.826Z,53.32
2018-05-16T07:37:52.328Z,53.26
2018-05-16T07:38:54.835Z,53.22
2018-05-16T07:39:57.339Z,53.18
2018-05-16T07:40:59.839Z,53.15
2018-05-16T07:42:02.350Z,53.12
2018-05-16T07:43:04.869Z,53.14
2018-05-16T07:44:07.342Z,53.17
2018-05-16T07:45:09.833Z,53.20
2018-05-16T07:46:12.302Z,53.25
2018-05-16T07:47:14.771Z,53.30
2018-05-16T07:48:17.273Z,53.30
2018-05-16T07:49:19.742Z,53.32
2018-05-16T07:50:22.236Z,53.34
2018-05-16T07:51:24.753Z,53.31
2018-05-16T07:52:27.264Z,53.31
2018-05-16T07:53:29.758Z,53.31
2018-05-16T07:54:32.227Z,53.33
2018-05-16T07:55:34.726Z,53.33
2018-05-16T07:56:37.233Z,53.33
2018-05-16T07:57:39.706Z,53.33
2018-05-16T07:58:42.231Z,53.31
2018-05-16T07:59:44.737Z,53.29
2018-05-16T08:00:47.256Z,53.28
2018-05-16T08:01:49.740Z,53.30
2018-05-16T08:02:52.237Z,53.32
2018-05-16T08:03:54.768Z,53.33
2018-05-16T08:04:57.257Z,53.33
2018-05-16T08:05:59.745Z,53.32
2018-05-16T08:07:02.232Z,53.33
2018-05-16T08:08:04.709Z,53.32
2018-05-16T08:09:07.194Z,53.32
2018-05-16T08:10:09.703Z,53.33
2018-05-16T08:11:12.197Z,53.33
2018-05-16T08:12:14.729Z,53.34
2018-05-16T08:13:17.214Z,53.34
2018-05-16T08:14:19.740Z,53.34
2018-05-16T08:15:22.232Z,53.34
2018-05-16T08:16:24.749Z,53.34
2018-05-16T08:17:27.292Z,53.34
2018-05-16T08:18:29.804Z,53.34
2018-05-16T08:19:32.413Z,53.34
2018-05-16T08:20:34.886Z,53.37
2018-05-16T08:21:37.388Z,53.35
2018-05-16T08:22:39.882Z,53.34
2018-05-16T08:23:42.394Z,53.35
2018-05-16T08:24:44.937Z,53.37
2018-05-16T08:25:47.426Z,53.37
2018-05-16T08:26:49.903Z,53.37
2018-05-16T08:27:52.396Z,53.21
2018-05-16T08:28:54.896Z,53.18
2018-05-16T08:29:57.411Z,53.25
2018-05-16T08:30:59.976Z,53.30
2018-05-16T08:32:02.467Z,53.32
2018-05-16T08:33:04.957Z,53.33
2018-05-16T08:34:07.478Z,53.32
2018-05-16T08:35:09.987Z,53.30
2018-05-16T08:36:12.463Z,53.17
2018-05-16T08:37:14.937Z,53.10
2018-05-16T08:38:17.435Z,52.99
2018-05-16T08:39:19.906Z,52.91
2018-05-16T08:40:22.400Z,52.85
2018-05-16T08:41:24.878Z,52.83
2018-05-16T08:42:27.365Z,52.78
2018-05-16T08:43:29.860Z,52.75
2018-05-16T08:44:32.354Z,52.66
2018-05-16T08:45:34.869Z,52.67
2018-05-16T08:46:37.379Z,52.59
2018-05-16T08:47:39.887Z,52.55
2018-05-16T08:48:42.388Z,52.53
2018-05-16T08:49:44.954Z,52.52
2018-05-16T08:50:47.498Z,52.45
2018-05-16T08:51:50.008Z,52.40
2018-05-16T08:52:52.601Z,52.33
2018-05-16T08:53:55.153Z,52.24
2018-05-16T08:54:57.589Z,52.21
2018-05-16T08:56:00.119Z,52.20
2018-05-16T08:57:02.734Z,52.18
2018-05-16T08:58:05.252Z,52.28
2018-05-16T08:59:07.744Z,52.34
2018-05-16T09:00:10.237Z,52.34
2018-05-16T09:01:12.817Z,52.29
2018-05-16T09:02:15.246Z,52.26
2018-05-16T09:03:17.764Z,52.24
2018-05-16T09:04:20.243Z,52.22
2018-05-16T09:05:22.733Z,52.21
2018-05-16T09:06:25.234Z,52.21
2018-05-16T09:07:27.741Z,52.19
2018-05-16T09:08:30.238Z,52.19
2018-05-16T09:09:32.770Z,52.23
2018-05-16T09:10:35.276Z,52.23
2018-05-16T09:11:37.814Z,52.24
2018-05-16T09:12:40.321Z,52.21
2018-05-16T09:13:42.841Z,52.23
2018-05-16T09:14:45.328Z,52.23
2018-05-16T09:15:47.810Z,52.21
2018-05-16T09:16:50.307Z,52.12
2018-05-16T09:17:52.797Z,52.13
2018-05-16T09:18:55.293Z,52.09
2018-05-16T09:19:57.783Z,52.06
2018-05-16T09:21:00.265Z,52.06
2018-05-16T09:22:02.785Z,52.01
2018-05-16T09:23:05.402Z,51.93
2018-05-16T09:24:07.905Z,51.85
2018-05-16T09:25:10.498Z,51.86
2018-05-16T09:26:12.947Z,51.84
2018-05-16T09:27:15.463Z,51.82
2018-05-16T09:28:17.935Z,51.81
2018-05-16T09:29:20.413Z,51.80
2018-05-16T09:30:23.061Z,51.86
2018-05-16T09:31:25.530Z,51.90
2018-05-16T09:32:28.036Z,51.91
2018-05-16T09:33:30.517Z,51.88
2018-05-16T09:34:33.025Z,51.85
2018-05-16T09:35:35.532Z,51.83
2018-05-16T09:36:38.039Z,51.76
2018-05-16T09:37:40.725Z,51.73
2018-05-16T09:38:43.425Z,51.78
2018-05-16T09:39:46.056Z,51.80
2018-05-16T09:40:48.559Z,51.77
2018-05-16T09:41:51.072Z,51.78
2018-05-16T09:42:53.593Z,51.78
2018-05-16T09:43:56.065Z,51.76
2018-05-16T09:44:58.717Z,51.75
2018-05-16T09:46:01.236Z,51.82
2018-05-16T09:47:03.720Z,51.90
2018-05-16T09:48:06.245Z,51.95
2018-05-16T09:49:08.755Z,51.95
2018-05-16T09:50:11.235Z,51.97
2018-05-16T09:51:13.744Z,51.97
2018-05-16T09:52:16.239Z,52.01
2018-05-16T09:53:18.761Z,52.07
2018-05-16T09:54:21.268Z,52.09
2018-05-16T09:55:25.599Z,52.14
2018-05-16T09:56:28.115Z,52.21
2018-05-16T09:57:30.591Z,52.23
2018-05-16T09:58:33.110Z,52.23
2018-05-16T09:59:35.609Z,52.29
2018-05-16T10:00:38.115Z,52.25
2018-05-16T10:01:40.637Z,52.21
2018-05-16T10:02:43.210Z,52.19
2018-05-16T10:03:45.670Z,52.18
2018-05-16T10:04:48.161Z,52.21
2018-05-16T10:05:50.639Z,52.16
2018-05-16T10:06:53.133Z,52.09
2018-05-16T10:07:55.609Z,52.02
2018-05-16T10:08:58.127Z,52.03
2018-05-16T10:10:00.603Z,52.05
2018-05-16T10:11:03.102Z,52.08
2018-05-16T10:12:05.607Z,52.06
2018-05-16T10:13:08.101Z,52.06
2018-05-16T10:14:10.609Z,52.04
2018-05-16T10:15:13.108Z,52.03
2018-05-16T10:16:15.636Z,52.00
2018-05-16T10:17:18.129Z,52.03
2018-05-16T10:18:20.644Z,52.00
2018-05-16T10:19:23.138Z,52.00
2018-05-16T10:20:25.756Z,51.98
2018-05-16T10:21:28.264Z,52.00
2018-05-16T10:22:30.752Z,51.99
2018-05-16T10:23:33.260Z,51.97
2018-05-16T10:24:35.766Z,51.97
2018-05-16T10:25:38.270Z,51.98
2018-05-16T10:26:40.776Z,51.97
2018-05-16T10:27:43.283Z,51.97
2018-05-16T10:28:45.792Z,51.98
2018-05-16T10:29:48.386Z,51.98
2018-05-16T10:30:50.878Z,51.81
2018-05-16T10:31:53.387Z,51.78
2018-05-16T10:32:55.866Z,51.80
2018-05-16T10:33:58.338Z,51.80
2018-05-16T10:35:00.861Z,51.81
2018-05-16T10:36:03.380Z,51.79
2018-05-16T10:37:05.876Z,51.81
2018-05-16T10:38:08.362Z,51.82
2018-05-16T10:39:10.845Z,51.83
2018-05-16T10:40:13.389Z,51.86
2018-05-16T10:41:15.887Z,51.88
2018-05-16T10:42:18.392Z,51.95
2018-05-16T10:43:20.893Z,52.07
2018-05-16T10:44:23.396Z,52.20
2018-05-16T10:45:25.929Z,52.30
2018-05-16T10:46:28.406Z,52.39
2018-05-16T10:47:30.886Z,52.44
2018-05-16T10:48:33.375Z,52.46
2018-05-16T10:49:35.881Z,52.46
2018-05-16T10:50:38.392Z,52.45
2018-05-16T10:51:40.869Z,52.44
2018-05-16T10:52:43.408Z,52.47
2018-05-16T10:53:45.924Z,52.51
2018-05-16T10:54:48.420Z,52.52
2018-05-16T10:55:50.955Z,52.52
2018-05-16T10:56:53.444Z,52.58
2018-05-16T10:57:55.957Z,52.65
2018-05-16T10:58:58.432Z,52.67
2018-05-16T11:00:00.907Z,52.65
2018-05-16T11:01:03.427Z,52.57
2018-05-16T11:02:05.913Z,52.57
2018-05-16T11:03:08.427Z,52.55
2018-05-16T11:04:10.928Z,52.56
2018-05-16T11:05:13.425Z,52.64
2018-05-16T11:06:15.922Z,52.68
2018-05-16T11:07:18.433Z,52.76
2018-05-16T11:08:20.944Z,52.89
2018-05-16T11:09:23.449Z,52.94
2018-05-16T11:10:25.967Z,52.92
2018-05-16T11:11:28.465Z,52.98
2018-05-16T11:12:30.975Z,53.04
2018-05-16T11:13:33.515Z,53.11
2018-05-16T11:14:36.014Z,53.15
2018-05-16T11:15:38.517Z,53.15
2018-05-16T11:16:41.034Z,53.13
2018-05-16T11:17:43.525Z,53.10
2018-05-16T11:18:46.027Z,53.09
2018-05-16T11:19:48.529Z,53.09
2018-05-16T11:20:51.025Z,53.02
2018-05-16T11:21:53.545Z,53.00
2018-05-16T11:22:56.031Z,53.08
2018-05-16T11:23:58.534Z,53.15
2018-05-16T11:25:01.021Z,53.13
2018-05-16T11:26:03.500Z,53.11
2018-05-16T11:27:06.010Z,53.10
2018-05-16T11:28:08.520Z,53.04
2018-05-16T11:29:11.028Z,53.06
2018-05-16T11:30:13.514Z,53.15
2018-05-16T11:31:15.998Z,53.27
2018-05-16T11:32:18.532Z,53.25
2018-05-16T11:33:21.035Z,53.20
2018-05-16T11:34:23.537Z,53.18
2018-05-16T11:35:26.025Z,53.19
2018-05-16T11:36:28.536Z,53.24
2018-05-16T11:37:31.065Z,53.26
2018-05-16T11:38:33.557Z,53.28
2018-05-16T11:39:36.034Z,53.25
2018-05-16T11:40:38.536Z,53.31
2018-05-16T11:41:41.047Z,53.29
2018-05-16T11:42:43.579Z,53.34
2018-05-16T11:43:46.098Z,53.48
2018-05-16T11:44:48.607Z,53.53
2018-05-16T11:45:51.116Z,53.56
2018-05-16T11:46:53.645Z,53.58
2018-05-16T11:47:56.145Z,53.71
2018-05-16T11:48:58.645Z,53.69
2018-05-16T11:50:01.149Z,53.69
2018-05-16T11:51:03.618Z,53.66
2018-05-16T11:52:06.129Z,53.69
2018-05-16T11:53:08.626Z,53.72
2018-05-16T11:54:11.117Z,53.77
2018-05-16T11:55:13.600Z,53.78
2018-05-16T11:56:16.120Z,53.80
2018-05-16T11:57:18.647Z,53.84
2018-05-16T11:58:21.144Z,53.87
2018-05-16T11:59:23.614Z,53.88
2018-05-16T12:00:26.117Z,53.85
2018-05-16T12:01:28.629Z,53.84
2018-05-16T12:02:31.161Z,53.91
2018-05-16T12:03:33.642Z,53.95
2018-05-16T12:04:36.149Z,53.94
2018-05-16T12:05:38.665Z,53.92
2018-05-16T12:06:41.171Z,53.87
2018-05-16T12:07:43.723Z,54.05
2018-05-16T12:08:46.235Z,54.17
2018-05-16T12:09:48.715Z,54.10
2018-05-16T12:10:51.222Z,53.65
2018-05-16T12:11:53.723Z,53.59
2018-05-16T12:12:56.233Z,53.55
2018-05-16T12:13:58.714Z,53.53
2018-05-16T12:15:01.239Z,53.45
2018-05-16T12:16:03.730Z,53.17
2018-05-16T12:17:06.252Z,53.08
2018-05-16T12:18:08.751Z,52.92
2018-05-16T12:19:11.240Z,52.85
2018-05-16T12:20:13.733Z,52.86
2018-05-16T12:21:16.250Z,52.84
2018-05-16T12:22:18.727Z,52.76
2018-05-16T12:23:21.239Z,52.68
2018-05-16T12:24:23.726Z,52.61
2018-05-16T12:25:26.203Z,52.53
2018-05-16T12:26:28.678Z,52.43
2018-05-16T12:27:31.150Z,52.37
2018-05-16T12:28:33.645Z,52.39
2018-05-16T12:29:36.148Z,52.39
2018-05-16T12:30:38.649Z,52.37
2018-05-16T12:31:41.167Z,52.32
2018-05-16T12:32:43.669Z,52.28
2018-05-16T12:33:46.174Z,52.25
2018-05-16T12:34:48.767Z,52.21
2018-05-16T12:35:51.340Z,52.19
2018-05-16T12:36:54.207Z,52.15
2018-05-16T12:37:56.723Z,52.13
2018-05-16T12:38:59.263Z,52.10
2018-05-16T12:40:01.802Z,52.09
2018-05-16T12:41:04.312Z,52.08
2018-05-16T12:42:06.790Z,52.08
2018-05-16T12:43:29.053Z,52.02
2018-05-16T12:44:31.851Z,51.92
2018-05-16T12:45:34.324Z,51.87
2018-05-16T12:46:36.946Z,51.87
2018-05-16T12:47:39.492Z,51.85
2018-05-16T12:48:41.984Z,51.57
2018-05-16T12:49:44.493Z,51.53
2018-05-16T12:50:47.004Z,51.54
2018-05-16T12:51:49.493Z,51.54
2018-05-16T12:52:51.984Z,51.52
2018-05-16T12:53:54.479Z,51.47
2018-05-16T12:54:57.064Z,51.45
2018-05-16T12:55:59.561Z,51.11
2018-05-16T12:57:02.054Z,50.12
2018-05-16T12:58:04.550Z,49.13
2018-05-16T12:59:07.934Z,49.07
2018-05-16T13:00:10.473Z,48.78
2018-05-16T13:01:12.984Z,48.74
2018-05-16T13:02:15.490Z,48.69
2018-05-16T13:03:17.975Z,48.67
2018-05-16T13:04:20.489Z,48.67
2018-05-16T13:05:23.005Z,48.81
2018-05-16T13:06:25.517Z,48.89
2018-05-16T13:07:28.156Z,48.97
2018-05-16T13:08:31.034Z,49.16
2018-05-16T13:09:33.548Z,49.36
2018-05-16T13:10:36.408Z,49.58
2018-05-16T13:11:39.525Z,49.63
2018-05-16T13:12:42.049Z,49.74
2018-05-16T13:13:45.178Z,49.83
2018-05-16T13:14:47.849Z,49.81
2018-05-16T13:15:50.379Z,49.83
2018-05-16T13:16:52.854Z,49.97
2018-05-16T13:17:55.396Z,50.05
2018-05-16T13:18:57.879Z,50.12
2018-05-16T13:20:00.391Z,50.25
2018-05-16T13:21:03.343Z,50.34
2018-05-16T13:22:07.026Z,50.41
2018-05-16T13:23:10.593Z,50.50
2018-05-16T13:24:14.986Z,50.66
2018-05-16T13:25:21.520Z,50.67
2018-05-16T13:26:25.487Z,50.68